Jock — WDF2423 — position and weather

sailwx.info

Track history (hours):
 
Tides and Currents Weather Stations Pressure Air Temp Water Temp Dewpoint Dewpoint Depression Visibility Wind Speed Wind Dir Waves Ship Positions

Jock

Owner: Enterprise Marine Services, LLC, San Antonio, TX. More information available from US FCC via Universal Licensing System and Coast Guard Vessel Documentation Center.

Last reported at 2014-Oct-05 15:32 UTC. Time now 2014-Nov-01 12:43 UTC.
Position N 29°42' W 091°31'.
Warning: this ship's position is 26 days out of date.

Length 28 m.

Type: Other ship. MMSI: 367003460.

Date/timePositionNaut miles runAvg speedWind from/ knotsBaromVisibWave heightAir tempDewpointWater temp
2014-Oct-05 15:32N 29°42' W 091°31'5 4.7
2014-Oct-05 14:22N 29°40' W 091°26'4 4.5
2014-Oct-05 13:32N 29°39' W 091°22'5 5.2
2014-Oct-05 12:33N 29°39' W 091°16'5 4.5
2014-Oct-05 11:33N 29°41' W 091°11'2 2.3
2014-Oct-05 10:33N 29°41' W 091°08'4 3.6
2014-Oct-05 09:33N 29°38' W 091°05'3 3.3
2014-Oct-05 08:33N 29°37' W 091°02'4 4.0
2014-Oct-05 07:33N 29°35' W 090°58'5 4.7
2014-Oct-05 06:33N 29°33' W 090°53'5 4.5
2014-Oct-05 05:30N 29°32' W 090°48'  
2014-Sep-30 05:06N 29°57' W 090°18'4 6.9
2014-Sep-30 04:33N 29°56' W 090°22'7 7.1
2014-Sep-30 03:33N 30°01' W 090°28'6 6.0
2014-Sep-30 02:33N 30°03' W 090°35'7 6.8
2014-Sep-30 01:33N 30°01' W 090°42'  
Track history (hours):
 
Tides and Currents Weather Stations Pressure Air Temp Water Temp Dewpoint Dewpoint Depression Visibility Wind Speed Wind Dir Waves Ship Positions

Jock

Owner: Enterprise Marine Services, LLC, San Antonio, TX. More information available from US FCC via Universal Licensing System and Coast Guard Vessel Documentation Center.

Last reported at 2014-Oct-05 15:32 UTC. Time now 2014-Nov-01 12:43 UTC.
Position N 29°42' W 091°31'.
Warning: this ship's position is 26 days out of date.

Length 28 m.

Type: Other ship. MMSI: 367003460.

Date/timePositionNaut miles runAvg speedWind from/ knotsBaromVisibWave heightAir tempDewpointWater temp
2014-Oct-05 15:32N 29°42' W 091°31'5 4.7
2014-Oct-05 14:22N 29°40' W 091°26'4 4.5
2014-Oct-05 13:32N 29°39' W 091°22'5 5.2
2014-Oct-05 12:33N 29°39' W 091°16'5 4.5
2014-Oct-05 11:33N 29°41' W 091°11'2 2.3
2014-Oct-05 10:33N 29°41' W 091°08'4 3.6
2014-Oct-05 09:33N 29°38' W 091°05'3 3.3
2014-Oct-05 08:33N 29°37' W 091°02'4 4.0
2014-Oct-05 07:33N 29°35' W 090°58'5 4.7
2014-Oct-05 06:33N 29°33' W 090°53'5 4.5
2014-Oct-05 05:30N 29°32' W 090°48'  
2014-Sep-30 05:06N 29°57' W 090°18'4 6.9
2014-Sep-30 04:33N 29°56' W 090°22'7 7.1
2014-Sep-30 03:33N 30°01' W 090°28'6 6.0
2014-Sep-30 02:33N 30°03' W 090°35'7 6.8
2014-Sep-30 01:33N 30°01' W 090°42'  

Dump ship's entire track history